KDWX

Dixon Airport

Dixon, Wyoming, USA
METAR KDWX 191555Z AUTO 08005KT 10SM BKN070 OVC085 M14/M15 A3039 RMK AO2 T11371154
Observed Flight Rules
Jan-19 @ 15:55 UTC (45 minutes ago) Visual Flight Rules
Wind Visibility Clouds
80° at 5 knots 10 miles
  • Broken at 7,000' AGL
  • Overcast at 8,500' AGL
Temperatures Readings
Current -14°C / 7°F
Dewpoint -15°C / 5°F
Humidity 92%
Altimeter 30.39" Hg
Pressure 1029.11 hPa
Elevation 1996
METAR KDWX 191555Z AUTO 08005KT 10SM BKN070 OVC085 M14/M15 A3039 RMK AO2 T11371154
Observed Flight Rules
Jan-19 @ 15:55 UTC
(45 minutes ago)
VFR
Wind Visibility
80° at 5 knots 10 miles
Clouds
  • Broken at 7,000' AGL
  • Overcast at 8,500' AGL
Temperature Dewpoint
-14°C / 7°F -15°C / 5°F
Humidity Altimeter Pressure
92% 30.39" Hg 1029.11 hPa